Time;durP1;ratioP1;P1;durP2;ratioP2;P2;SDS_P1;SDS_P2;PMS_P1;PMS_P2;Temp;Humidity;BMP_temperature;BMP_pressure;BME280_temperature;BME280_humidity;BME280_pressure;Samples;Min_cycle;Max_cycle;Signal;HPM_P1;HPM_P2
2022/03/27 00:00:21;;;;;;;49.53;18.43;;;;;;;;;;4988870;28;20510;-70
2022/03/27 00:02:48;;;;;;;52.67;18.87;;;;;;;;;;4971585;28;20445;-69
2022/03/27 00:05:15;;;;;;;48.70;17.23;;;;;;;;;;4971474;28;20448;-70
2022/03/27 00:07:41;;;;;;;51.70;17.50;;;;;;;;;;4988926;28;20428;-70
2022/03/27 00:10:09;;;;;;;46.13;17.53;;;;;;;;;;4987276;28;20935;-69
2022/03/27 00:12:53;;;;;;;50.17;17.20;;;;;;;;;;4988010;28;20579;-70
2022/03/27 00:15:20;;;;;;;46.23;18.40;;;;;;;;;;4971418;28;20487;-69
2022/03/27 00:17:46;;;;;;;53.13;17.53;;;;;;;;;;4988658;28;20444;-70
2022/03/27 00:20:13;;;;;;;47.87;17.43;;;;;;;;;;4987950;28;20539;-69
2022/03/27 00:22:40;;;;;;;54.27;17.17;;;;;;;;;;4972566;28;20990;-69
2022/03/27 00:25:24;;;;;;;47.77;15.63;;;;;;;;;;4975199;28;20431;-70
2022/03/27 00:27:50;;;;;;;46.07;15.50;;;;;;;;;;4987453;28;20947;-70
2022/03/27 00:30:34;;;;;;;45.97;17.10;;;;;;;;;;4988912;28;20430;-69
2022/03/27 00:33:01;;;;;;;47.87;16.47;;;;;;;;;;4988338;28;20428;-70
2022/03/27 00:35:45;;;;;;;38.73;14.37;;;;;;;;;;4977685;28;20447;-70
2022/03/27 00:38:12;;;;;;;42.77;14.67;;;;;;;;;;4992385;28;20524;-69
2022/03/27 00:40:39;;;;;;;49.00;17.27;;;;;;;;;;4991579;28;20478;-70
2022/03/27 00:43:05;;;;;;;46.50;16.90;;;;;;;;;;4992166;28;20538;-70
2022/03/27 00:45:32;;;;;;;45.47;15.63;;;;;;;;;;4992440;28;20446;-70
2022/03/27 00:47:59;;;;;;;48.03;17.53;;;;;;;;;;4992359;28;21190;-70
2022/03/27 00:50:26;;;;;;;58.57;20.37;;;;;;;;;;4992178;28;20973;-70
2022/03/27 00:52:52;;;;;;;68.27;22.77;;;;;;;;;;4992581;28;20416;-70
2022/03/27 00:55:19;;;;;;;71.00;21.70;;;;;;;;;;4991890;28;20451;-70
2022/03/27 00:57:46;;;;;;;69.33;22.00;;;;;;;;;;4974846;28;20946;-70
2022/03/27 01:00:18;;;;;;;73.93;21.73;;;;;;;;;;4984502;28;20505;-70
2022/03/27 01:02:44;;;;;;;65.53;19.60;;;;;;;;;;4971995;28;20505;-70
2022/03/27 01:37:26;;;;;;;35.50;13.93;;;;;;;;;;4979776;28;20479;-70
2022/03/27 01:39:52;;;;;;;29.20;13.00;;;;;;;;;;4980960;28;20479;-70
2022/03/27 01:42:19;;;;;;;30.37;13.03;;;;;;;;;;4973763;28;21407;-69
2022/03/27 01:44:46;;;;;;;26.37;12.30;;;;;;;;;;4969565;28;20437;-70
2022/03/27 01:47:13;;;;;;;28.30;12.93;;;;;;;;;;4981653;28;20477;-70
2022/03/27 01:49:40;;;;;;;35.20;13.27;;;;;;;;;;4973543;28;20986;-70
2022/03/27 01:52:07;;;;;;;35.70;13.43;;;;;;;;;;4989925;28;20947;-70
2022/03/27 01:54:34;;;;;;;28.67;13.00;;;;;;;;;;4990325;28;20450;-70
2022/03/27 01:57:01;;;;;;;32.33;13.97;;;;;;;;;;4990751;28;20479;-70
2022/03/27 01:59:28;;;;;;;30.17;12.20;;;;;;;;;;4990991;28;20440;-70
2022/03/27 02:01:54;;;;;;;30.67;11.97;;;;;;;;;;4989201;28;20486;-69
2022/03/27 02:04:22;;;;;;;27.67;12.67;;;;;;;;;;4968598;28;20451;-69
2022/03/27 02:06:48;;;;;;;28.53;11.87;;;;;;;;;;4971732;28;20912;-70
2022/03/27 02:09:15;;;;;;;27.03;11.60;;;;;;;;;;4975645;28;20431;-70
2022/03/27 02:11:42;;;;;;;27.00;11.73;;;;;;;;;;4984670;28;21205;-70
2022/03/27 02:14:09;;;;;;;28.87;12.30;;;;;;;;;;4985724;28;20978;-70
2022/03/27 02:16:36;;;;;;;28.83;11.10;;;;;;;;;;4990319;28;20480;-70
2022/03/27 02:19:09;;;;;;;22.67;10.37;;;;;;;;;;4990354;28;20527;-69
2022/03/27 02:21:37;;;;;;;24.10;11.13;;;;;;;;;;4990858;28;20466;-69
2022/03/27 02:24:04;;;;;;;32.87;13.17;;;;;;;;;;4990403;28;20981;-69
2022/03/27 02:26:30;;;;;;;22.07;11.50;;;;;;;;;;4990923;28;20452;-69
2022/03/27 02:29:14;;;;;;;25.70;12.03;;;;;;;;;;4975535;28;20439;-69
2022/03/27 02:31:41;;;;;;;25.40;11.17;;;;;;;;;;4990400;28;20444;-69
2022/03/27 02:34:26;;;;;;;29.00;11.60;;;;;;;;;;4975748;28;20466;-70
2022/03/27 02:36:53;;;;;;;28.27;12.33;;;;;;;;;;4975382;28;20472;-70
2022/03/27 02:39:20;;;;;;;27.03;11.63;;;;;;;;;;4980475;28;21365;-70
2022/03/27 02:41:46;;;;;;;29.23;12.23;;;;;;;;;;4981380;28;20457;-69
2022/03/27 02:44:13;;;;;;;28.93;11.80;;;;;;;;;;4991480;28;20482;-69
2022/03/27 02:46:40;;;;;;;35.07;13.10;;;;;;;;;;4991554;28;20435;-70
2022/03/27 02:49:09;;;;;;;23.87;11.80;;;;;;;;;;4990243;28;20443;-70
2022/03/27 02:51:35;;;;;;;27.17;11.53;;;;;;;;;;4990289;28;20858;-70
2022/03/27 02:54:04;;;;;;;29.43;11.40;;;;;;;;;;4989934;28;20464;-70
2022/03/27 02:56:31;;;;;;;28.30;12.27;;;;;;;;;;4989442;28;20784;-70
2022/03/27 02:58:58;;;;;;;30.43;11.37;;;;;;;;;;4989415;28;20443;-68
2022/03/27 03:01:25;;;;;;;25.60;11.53;;;;;;;;;;4989498;28;20448;-69
2022/03/27 03:03:52;;;;;;;26.93;10.80;;;;;;;;;;4972564;28;20452;-69
2022/03/27 03:06:20;;;;;;;26.37;10.90;;;;;;;;;;4990059;28;20439;-70
2022/03/27 03:08:47;;;;;;;27.13;10.60;;;;;;;;;;4989983;28;20411;-70
2022/03/27 03:11:15;;;;;;;30.70;11.17;;;;;;;;;;4989614;28;20449;-70
2022/03/27 03:13:43;;;;;;;23.90;10.37;;;;;;;;;;4989643;28;20428;-70
2022/03/27 03:16:10;;;;;;;31.90;10.97;;;;;;;;;;4955382;28;20494;-70
2022/03/27 03:18:37;;;;;;;28.50;10.70;;;;;;;;;;4970859;28;20955;-69
2022/03/27 03:21:04;;;;;;;30.10;10.50;;;;;;;;;;4989753;28;20453;-69
2022/03/27 03:23:32;;;;;;;29.33;11.33;;;;;;;;;;4989419;28;20443;-69
2022/03/27 03:25:59;;;;;;;25.17;10.17;;;;;;;;;;4972051;28;20530;-69
2022/03/27 03:28:34;;;;;;;23.93;9.67;;;;;;;;;;4973499;28;20990;-69
2022/03/27 03:31:01;;;;;;;20.40;9.23;;;;;;;;;;4969592;28;20428;-70
2022/03/27 03:33:28;;;;;;;22.47;9.93;;;;;;;;;;4989472;28;20442;-69
2022/03/27 03:35:55;;;;;;;22.73;9.20;;;;;;;;;;4970344;28;20432;-69
2022/03/27 03:38:21;;;;;;;26.90;10.40;;;;;;;;;;4970103;28;20497;-69
2022/03/27 03:40:48;;;;;;;21.80;10.40;;;;;;;;;;4987814;28;20804;-69
2022/03/27 03:43:15;;;;;;;20.27;9.33;;;;;;;;;;4971587;28;20486;-69
2022/03/27 03:45:42;;;;;;;22.53;9.57;;;;;;;;;;4989183;28;20438;-69
2022/03/27 03:48:09;;;;;;;22.63;9.97;;;;;;;;;;4988423;28;20763;-69
2022/03/27 03:50:36;;;;;;;23.57;10.27;;;;;;;;;;4989366;28;20435;-69
2022/03/27 03:53:03;;;;;;;24.10;10.30;;;;;;;;;;4988982;28;21047;-70
2022/03/27 03:55:30;;;;;;;24.47;9.63;;;;;;;;;;4989175;28;20543;-69
2022/03/27 03:57:57;;;;;;;24.87;9.57;;;;;;;;;;4968282;28;20473;-70
2022/03/27 04:00:23;;;;;;;22.07;9.30;;;;;;;;;;4985961;28;20772;-69
2022/03/27 04:02:51;;;;;;;21.77;9.23;;;;;;;;;;4988255;28;20502;-69
2022/03/27 04:05:17;;;;;;;22.47;9.90;;;;;;;;;;4988894;28;20862;-69
2022/03/27 04:07:44;;;;;;;25.03;9.63;;;;;;;;;;4972115;28;20814;-70
2022/03/27 04:10:11;;;;;;;29.47;10.27;;;;;;;;;;4992630;28;20453;-70
2022/03/27 04:12:38;;;;;;;20.33;9.33;;;;;;;;;;4975758;28;20498;-71
2022/03/27 04:15:05;;;;;;;20.87;9.43;;;;;;;;;;4993261;28;20438;-71
2022/03/27 04:17:31;;;;;;;24.73;10.10;;;;;;;;;;4992812;28;20473;-71
2022/03/27 04:19:58;;;;;;;24.00;10.23;;;;;;;;;;4993022;28;20440;-70
2022/03/27 04:22:25;;;;;;;26.37;10.53;;;;;;;;;;4975693;28;20434;-69
2022/03/27 04:24:51;;;;;;;24.77;9.97;;;;;;;;;;4993350;28;20435;-68
2022/03/27 04:27:18;;;;;;;23.43;9.53;;;;;;;;;;4993816;28;20458;-71
2022/03/27 04:30:08;;;;;;;21.13;9.10;;;;;;;;;;4981374;28;20438;-68
2022/03/27 04:32:35;;;;;;;23.27;10.03;;;;;;;;;;4989192;28;20449;-70
2022/03/27 04:35:19;;;;;;;22.70;8.90;;;;;;;;;;4978369;28;20540;-70
2022/03/27 04:37:47;;;;;;;22.07;9.07;;;;;;;;;;4993461;28;21314;-71
2022/03/27 04:40:31;;;;;;;24.40;9.83;;;;;;;;;;4987047;28;20470;-71
2022/03/27 04:42:58;;;;;;;19.50;9.03;;;;;;;;;;4975620;28;20444;-71
2022/03/27 04:45:25;;;;;;;23.87;9.17;;;;;;;;;;4972471;28;20962;-71
2022/03/27 04:47:51;;;;;;;25.80;9.47;;;;;;;;;;4975198;28;20419;-69
2022/03/27 04:50:18;;;;;;;26.77;10.00;;;;;;;;;;4992615;28;20489;-69
2022/03/27 04:52:45;;;;;;;26.07;10.80;;;;;;;;;;4993009;28;20498;-71
2022/03/27 04:55:12;;;;;;;26.40;9.50;;;;;;;;;;4992377;28;20953;-68
2022/03/27 04:57:39;;;;;;;24.67;9.70;;;;;;;;;;4992869;28;20463;-68
2022/03/27 05:00:10;;;;;;;24.73;10.57;;;;;;;;;;4992782;28;20482;-69
2022/03/27 05:02:40;;;;;;;22.90;9.93;;;;;;;;;;4976750;28;20839;-71
2022/03/27 05:05:24;;;;;;;20.40;9.67;;;;;;;;;;4987772;28;20508;-69
2022/03/27 05:07:53;;;;;;;24.17;10.13;;;;;;;;;;4992266;28;20434;-69
2022/03/27 05:10:20;;;;;;;23.20;9.93;;;;;;;;;;4971215;28;20941;-69
2022/03/27 05:12:47;;;;;;;25.00;9.80;;;;;;;;;;4956297;28;20430;-69
2022/03/27 05:15:13;;;;;;;27.77;11.07;;;;;;;;;;4986208;28;20496;-69
2022/03/27 05:17:55;;;;;;;26.70;10.47;;;;;;;;;;4992584;28;20448;-69
2022/03/27 05:20:22;;;;;;;24.87;10.40;;;;;;;;;;4974748;28;20509;-69
2022/03/27 05:22:48;;;;;;;24.83;10.80;;;;;;;;;;4971403;28;20942;-69
2022/03/27 05:25:16;;;;;;;28.03;11.47;;;;;;;;;;4961762;28;20553;-69
2022/03/27 05:27:46;;;;;;;29.13;11.37;;;;;;;;;;4973365;28;20515;-69
2022/03/27 05:30:17;;;;;;;26.50;10.30;;;;;;;;;;4973664;28;20440;-69
2022/03/27 05:32:44;;;;;;;29.70;10.50;;;;;;;;;;4980675;28;20498;-69
2022/03/27 05:35:10;;;;;;;30.97;11.37;;;;;;;;;;4974643;28;20803;-69
2022/03/27 05:37:37;;;;;;;22.03;10.60;;;;;;;;;;4991763;28;20463;-69
2022/03/27 05:40:05;;;;;;;24.77;10.63;;;;;;;;;;4991415;28;20478;-69
2022/03/27 05:42:31;;;;;;;30.50;11.67;;;;;;;;;;4974573;28;20482;-70
2022/03/27 05:45:16;;;;;;;25.87;11.13;;;;;;;;;;4991579;28;20469;-70
2022/03/27 05:47:43;;;;;;;37.73;13.23;;;;;;;;;;4974845;28;20428;-70
2022/03/27 05:50:10;;;;;;;34.47;12.20;;;;;;;;;;4954620;28;20483;-70
2022/03/27 05:52:37;;;;;;;36.40;13.03;;;;;;;;;;4971705;28;20994;-70
2022/03/27 05:55:04;;;;;;;35.77;13.30;;;;;;;;;;4971603;28;20453;-70
2022/03/27 05:57:31;;;;;;;32.77;12.40;;;;;;;;;;4973897;28;20827;-70
2022/03/27 05:59:58;;;;;;;38.30;12.67;;;;;;;;;;4970565;28;20567;-70
2022/03/27 06:02:24;;;;;;;29.63;13.00;;;;;;;;;;4959168;28;20429;-70
2022/03/27 06:04:51;;;;;;;34.40;13.50;;;;;;;;;;4972664;28;20461;-70
2022/03/27 06:07:18;;;;;;;30.53;12.80;;;;;;;;;;4967233;28;20440;-70
2022/03/27 06:09:45;;;;;;;28.20;12.83;;;;;;;;;;4990973;28;20440;-70
2022/03/27 06:12:12;;;;;;;29.10;12.27;;;;;;;;;;4991080;28;20436;-70
2022/03/27 06:14:38;;;;;;;34.20;13.07;;;;;;;;;;4969576;28;20440;-70
2022/03/27 06:17:05;;;;;;;32.97;12.93;;;;;;;;;;4987647;28;21013;-70
2022/03/27 06:19:32;;;;;;;29.00;12.77;;;;;;;;;;4971044;28;20425;-70
2022/03/27 06:21:59;;;;;;;28.83;11.87;;;;;;;;;;4985842;28;20538;-70
2022/03/27 06:24:26;;;;;;;29.43;12.27;;;;;;;;;;4974373;28;20420;-70
2022/03/27 06:26:52;;;;;;;27.60;11.97;;;;;;;;;;4989475;28;20452;-70
2022/03/27 06:29:21;;;;;;;29.67;12.73;;;;;;;;;;4962095;28;20448;-70
2022/03/27 06:31:49;;;;;;;27.77;12.63;;;;;;;;;;4963732;28;20516;-70
2022/03/27 06:34:17;;;;;;;29.93;13.43;;;;;;;;;;4968431;28;20810;-71
2022/03/27 06:36:44;;;;;;;44.13;19.63;;;;;;;;;;4976616;28;20491;-70
2022/03/27 06:39:11;;;;;;;64.10;24.17;;;;;;;;;;4990977;28;20482;-70
2022/03/27 06:41:39;;;;;;;73.73;27.50;;;;;;;;;;4991105;28;20434;-71
2022/03/27 06:44:08;;;;;;;61.93;22.93;;;;;;;;;;4991232;28;20427;-70
2022/03/27 06:46:34;;;;;;;48.03;18.50;;;;;;;;;;4991219;28;20509;-70
2022/03/27 06:49:19;;;;;;;36.60;16.03;;;;;;;;;;4978541;28;20435;-71
2022/03/27 06:51:45;;;;;;;35.03;14.60;;;;;;;;;;4973927;28;20420;-70
2022/03/27 06:54:12;;;;;;;31.97;14.20;;;;;;;;;;4973648;28;20506;-71
2022/03/27 06:56:42;;;;;;;26.80;13.47;;;;;;;;;;4990739;28;20825;-71
2022/03/27 06:59:09;;;;;;;34.00;15.20;;;;;;;;;;4982363;28;20459;-71
2022/03/27 07:04:22;;;;;;;33.97;17.13;;;;;;;;;;4990552;28;20432;-71
2022/03/27 07:06:48;;;;;;;30.53;16.57;;;;;;;;;;4990990;28;20902;-71
2022/03/27 07:09:18;;;;;;;34.27;14.47;;;;;;;;;;4985388;28;20530;-71
2022/03/27 07:11:46;;;;;;;30.40;13.60;;;;;;;;;;4994994;28;20943;-72
2022/03/27 07:14:13;;;;;;;33.43;13.27;;;;;;;;;;5010220;28;20482;-71
2022/03/27 07:16:40;;;;;;;29.90;13.83;;;;;;;;;;4992700;28;20422;-73
2022/03/27 07:19:11;;;;;;;28.40;13.90;;;;;;;;;;5010070;28;20493;-73
2022/03/27 07:21:37;;;;;;;29.00;13.93;;;;;;;;;;4978189;28;20955;-73
2022/03/27 07:24:04;;;;;;;27.00;13.37;;;;;;;;;;4990092;28;20450;-73
2022/03/27 07:26:31;;;;;;;25.17;12.30;;;;;;;;;;4990229;28;20436;-73
2022/03/27 07:28:58;;;;;;;22.83;9.87;;;;;;;;;;4988685;28;20466;-73
2022/03/27 07:31:25;;;;;;;18.57;9.50;;;;;;;;;;4975582;28;20436;-73
2022/03/27 07:33:55;;;;;;;22.13;9.80;;;;;;;;;;5010049;28;20506;-73
2022/03/27 07:36:22;;;;;;;17.67;8.27;;;;;;;;;;5003820;28;20255;-73
2022/03/27 07:38:49;;;;;;;19.13;8.47;;;;;;;;;;4988706;28;20320;-73
2022/03/27 07:41:16;;;;;;;18.33;8.17;;;;;;;;;;4987987;28;20239;-73
2022/03/27 07:43:43;;;;;;;18.73;8.23;;;;;;;;;;4993137;28;20267;-71
2022/03/27 07:46:10;;;;;;;16.20;7.93;;;;;;;;;;4990483;28;20556;-73
2022/03/27 07:48:38;;;;;;;15.10;7.43;;;;;;;;;;4971985;28;20213;-73
2022/03/27 07:51:06;;;;;;;16.80;8.00;;;;;;;;;;4985310;28;20192;-73
2022/03/27 07:53:33;;;;;;;14.33;7.60;;;;;;;;;;4972956;28;20200;-74
2022/03/27 07:56:00;;;;;;;12.33;5.57;;;;;;;;;;4982350;28;20250;-75
2022/03/27 07:58:44;;;;;;;8.90;3.40;;;;;;;;;;4980522;28;20797;-73
2022/03/27 08:01:14;;;;;;;7.63;3.30;;;;;;;;;;4990027;28;20232;-74
2022/03/27 08:03:42;;;;;;;6.77;3.03;;;;;;;;;;5005478;28;20659;-75
2022/03/27 08:06:09;;;;;;;8.37;3.57;;;;;;;;;;5004250;28;20711;-74
2022/03/27 08:08:36;;;;;;;5.50;2.20;;;;;;;;;;4991221;28;20184;-74
2022/03/27 08:11:20;;;;;;;3.77;1.67;;;;;;;;;;4979154;28;20279;-74
2022/03/27 08:13:47;;;;;;;5.27;1.60;;;;;;;;;;5003795;28;20863;-72
2022/03/27 08:16:13;;;;;;;4.37;1.93;;;;;;;;;;4978379;28;20192;-74
2022/03/27 08:18:42;;;;;;;5.10;2.60;;;;;;;;;;4987878;28;20224;-74
2022/03/27 08:21:09;;;;;;;5.13;2.80;;;;;;;;;;4994296;28;20185;-74
2022/03/27 08:23:54;;;;;;;5.27;2.50;;;;;;;;;;5003637;28;20188;-73
2022/03/27 08:29:07;;;;;;;4.83;2.50;;;;;;;;;;4996868;28;20193;-73
2022/03/27 08:31:34;;;;;;;5.50;2.20;;;;;;;;;;5004711;28;20271;-73
2022/03/27 08:34:01;;;;;;;4.20;1.93;;;;;;;;;;4974297;28;20303;-74
2022/03/27 08:36:28;;;;;;;5.93;2.37;;;;;;;;;;4988173;28;20267;-74
2022/03/27 08:38:55;;;;;;;5.73;2.77;;;;;;;;;;4997062;28;20208;-73
2022/03/27 08:41:22;;;;;;;5.17;2.20;;;;;;;;;;4988957;28;20303;-73
2022/03/27 08:43:58;;;;;;;3.63;2.17;;;;;;;;;;4971240;28;20913;-73
2022/03/27 08:46:26;;;;;;;5.63;2.20;;;;;;;;;;4977188;28;20271;-73
2022/03/27 08:48:53;;;;;;;6.50;2.63;;;;;;;;;;4998092;28;20181;-73
2022/03/27 08:51:41;;;;;;;4.87;2.30;;;;;;;;;;5000790;28;20192;-72
2022/03/27 08:54:26;;;;;;;1.83;0.80;;;;;;;;;;4982531;28;20172;-73
2022/03/27 08:57:00;;;;;;;4.57;1.10;;;;;;;;;;4984178;28;20588;-72
2022/03/27 08:59:28;;;;;;;3.57;1.00;;;;;;;;;;4994341;28;20397;-72
2022/03/27 09:01:55;;;;;;;2.20;1.07;;;;;;;;;;4992092;28;20200;-73
2022/03/27 09:04:22;;;;;;;3.13;1.10;;;;;;;;;;4974157;28;20776;-66
2022/03/27 09:06:49;;;;;;;1.37;0.67;;;;;;;;;;5000992;28;20587;-67
2022/03/27 09:09:16;;;;;;;3.00;1.00;;;;;;;;;;4994173;28;20212;-67
2022/03/27 09:11:43;;;;;;;3.70;0.93;;;;;;;;;;5007313;28;20259;-67
2022/03/27 09:14:10;;;;;;;2.57;0.97;;;;;;;;;;4989684;28;20213;-67
2022/03/27 09:16:56;;;;;;;4.87;1.30;;;;;;;;;;4992491;28;20259;-68
2022/03/27 09:19:33;;;;;;;6.23;1.23;;;;;;;;;;4973345;28;20213;-67
2022/03/27 09:22:02;;;;;;;1.93;1.00;;;;;;;;;;4993333;28;20296;-72
2022/03/27 09:24:38;;;;;;;2.97;1.30;;;;;;;;;;4994596;28;20192;-73
2022/03/27 09:27:05;;;;;;;4.40;1.07;;;;;;;;;;4991659;28;20189;-73
2022/03/27 09:29:52;;;;;;;2.80;0.90;;;;;;;;;;4987991;28;20227;-72
2022/03/27 09:32:29;;;;;;;4.40;1.33;;;;;;;;;;5007609;28;20598;-73
2022/03/27 09:35:08;;;;;;;3.77;1.10;;;;;;;;;;4975135;28;20206;-73
2022/03/27 09:37:37;;;;;;;6.13;1.60;;;;;;;;;;4992237;28;20294;-73
2022/03/27 09:40:05;;;;;;;4.93;1.30;;;;;;;;;;4984490;28;20253;-73
2022/03/27 09:42:32;;;;;;;5.40;1.60;;;;;;;;;;4973198;28;20189;-73
2022/03/27 09:45:09;;;;;;;3.60;1.67;;;;;;;;;;4953927;28;20205;-73
2022/03/27 09:47:36;;;;;;;4.83;1.60;;;;;;;;;;4979414;28;20189;-73
2022/03/27 09:50:03;;;;;;;3.00;1.37;;;;;;;;;;4981710;28;20204;-74
2022/03/27 09:52:30;;;;;;;3.20;1.37;;;;;;;;;;4978061;28;20212;-73
2022/03/27 09:55:16;;;;;;;2.57;1.10;;;;;;;;;;4957241;28;20176;-73
2022/03/27 09:57:43;;;;;;;4.10;1.27;;;;;;;;;;4985129;28;20209;-72
2022/03/27 10:00:28;;;;;;;3.13;1.33;;;;;;;;;;4970667;28;20179;-72
2022/03/27 10:02:56;;;;;;;3.53;1.50;;;;;;;;;;4967984;28;20193;-72
2022/03/27 10:05:23;;;;;;;3.97;2.00;;;;;;;;;;4985163;28;20201;-70
2022/03/27 10:07:54;;;;;;;5.43;1.20;;;;;;;;;;4983066;28;20185;-70
2022/03/27 10:10:21;;;;;;;2.77;1.30;;;;;;;;;;4983185;28;20197;-73
2022/03/27 10:12:49;;;;;;;2.43;1.40;;;;;;;;;;4985575;28;20280;-76
2022/03/27 10:15:16;;;;;;;4.90;1.77;;;;;;;;;;4982859;28;21084;-69
2022/03/27 10:17:57;;;;;;;4.83;1.10;;;;;;;;;;4975553;28;20754;-73
2022/03/27 10:20:28;;;;;;;4.87;1.57;;;;;;;;;;4990820;28;20195;-72
2022/03/27 10:23:16;;;;;;;4.50;1.60;;;;;;;;;;4987910;28;20208;-73
2022/03/27 10:26:01;;;;;;;4.13;1.63;;;;;;;;;;4983763;28;20168;-72
2022/03/27 10:28:30;;;;;;;5.73;1.60;;;;;;;;;;4988002;28;20200;-71
2022/03/27 10:31:00;;;;;;;3.40;1.40;;;;;;;;;;4968950;28;20189;-72
2022/03/27 10:33:27;;;;;;;5.83;1.67;;;;;;;;;;4984765;28;21017;-71
2022/03/27 10:35:54;;;;;;;6.13;1.60;;;;;;;;;;4967025;28;20197;-72
2022/03/27 10:38:42;;;;;;;5.73;1.70;;;;;;;;;;4984995;28;20235;-72
2022/03/27 10:41:22;;;;;;;4.93;1.40;;;;;;;;;;4953033;28;20640;-72
2022/03/27 10:43:49;;;;;;;4.17;1.30;;;;;;;;;;4973662;28;20197;-62
2022/03/27 10:46:17;;;;;;;2.17;1.07;;;;;;;;;;4950276;28;20243;-63
2022/03/27 10:48:45;;;;;;;4.77;1.63;;;;;;;;;;4975698;28;20737;-61
2022/03/27 10:51:33;;;;;;;6.40;1.77;;;;;;;;;;4977053;28;20192;-61
2022/03/27 10:54:03;;;;;;;4.20;1.50;;;;;;;;;;4971909;28;20208;-60
2022/03/27 10:56:52;;;;;;;2.40;1.27;;;;;;;;;;4978989;28;20196;-62
2022/03/27 10:59:19;;;;;;;6.07;1.97;;;;;;;;;;4965100;28;20220;-62
2022/03/27 11:02:04;;;;;;;4.17;1.30;;;;;;;;;;4979995;28;20276;-62
2022/03/27 11:04:34;;;;;;;3.33;1.57;;;;;;;;;;4980735;28;20228;-62
2022/03/27 11:07:15;;;;;;;4.50;1.50;;;;;;;;;;4985404;28;20802;-61
2022/03/27 11:09:46;;;;;;;5.63;1.90;;;;;;;;;;4972277;28;20289;-61
2022/03/27 11:12:18;;;;;;;6.67;1.90;;;;;;;;;;4996963;28;20192;-61
2022/03/27 11:15:01;;;;;;;4.07;1.27;;;;;;;;;;4991750;28;20648;-61
2022/03/27 11:17:38;;;;;;;4.43;1.50;;;;;;;;;;4978714;28;22113;-62
2022/03/27 11:20:07;;;;;;;5.20;1.40;;;;;;;;;;4977075;28;20212;-61
2022/03/27 11:22:43;;;;;;;3.47;1.30;;;;;;;;;;4979767;28;20839;-61
2022/03/27 11:25:29;;;;;;;2.53;1.33;;;;;;;;;;4980346;28;20677;-62
2022/03/27 11:28:09;;;;;;;5.50;1.90;;;;;;;;;;4979941;28;20197;-61
2022/03/27 11:30:45;;;;;;;4.67;1.50;;;;;;;;;;4981313;28;20192;-61
2022/03/27 11:33:30;;;;;;;4.63;1.80;;;;;;;;;;4981833;28;20180;-61
2022/03/27 11:36:09;;;;;;;5.60;1.90;;;;;;;;;;4980601;28;20203;-61
2022/03/27 11:38:58;;;;;;;8.20;1.57;;;;;;;;;;4987801;28;20211;-60
2022/03/27 11:41:34;;;;;;;4.23;1.77;;;;;;;;;;4941988;28;20692;-60
2022/03/27 11:44:22;;;;;;;3.33;1.50;;;;;;;;;;4969375;28;20192;-59
2022/03/27 11:46:52;;;;;;;5.53;2.27;;;;;;;;;;4969213;28;20185;-62
2022/03/27 11:49:20;;;;;;;8.93;2.43;;;;;;;;;;4974242;28;20311;-61
2022/03/27 11:51:47;;;;;;;6.40;2.20;;;;;;;;;;4969250;28;20556;-63
2022/03/27 11:54:17;;;;;;;3.17;1.30;;;;;;;;;;4980876;28;20200;-60
2022/03/27 11:56:54;;;;;;;3.70;1.57;;;;;;;;;;4980987;28;20607;-61
2022/03/27 11:59:22;;;;;;;4.27;1.50;;;;;;;;;;4967109;28;20691;-61
2022/03/27 12:01:51;;;;;;;3.90;1.50;;;;;;;;;;4982775;28;20287;-60
2022/03/27 12:04:19;;;;;;;3.70;1.90;;;;;;;;;;4981102;28;20303;-61
2022/03/27 12:06:46;;;;;;;3.70;1.67;;;;;;;;;;4980859;28;20189;-62
2022/03/27 12:09:27;;;;;;;3.37;1.57;;;;;;;;;;4983788;28;20831;-60
2022/03/27 12:12:10;;;;;;;4.23;1.20;;;;;;;;;;4988711;28;20192;-60
2022/03/27 12:14:57;;;;;;;3.57;0.90;;;;;;;;;;4988357;28;20196;-60
2022/03/27 12:17:25;;;;;;;4.97;1.30;;;;;;;;;;4988134;28;20201;-59
2022/03/27 12:20:05;;;;;;;4.27;1.47;;;;;;;;;;4986825;28;20638;-60
2022/03/27 12:22:32;;;;;;;5.23;1.50;;;;;;;;;;4952205;28;20267;-60
2022/03/27 12:24:59;;;;;;;4.43;1.70;;;;;;;;;;4969206;28;20201;-59
2022/03/27 12:30:11;;;;;;;5.00;2.10;;;;;;;;;;4971354;28;20178;-59
2022/03/27 12:32:38;;;;;;;3.60;1.77;;;;;;;;;;4976837;28;20189;-59
2022/03/27 12:35:06;;;;;;;4.77;1.67;;;;;;;;;;4991588;28;20617;-60
2022/03/27 12:37:35;;;;;;;4.97;1.50;;;;;;;;;;4987277;28;20225;-60
2022/03/27 12:40:06;;;;;;;3.93;1.53;;;;;;;;;;4981674;28;20230;-60
2022/03/27 12:42:37;;;;;;;5.77;1.60;;;;;;;;;;4992329;28;20193;-60
2022/03/27 12:45:07;;;;;;;5.00;1.77;;;;;;;;;;4978707;28;21005;-60
2022/03/27 12:47:48;;;;;;;3.63;1.77;;;;;;;;;;4983494;28;20205;-59
2022/03/27 12:50:34;;;;;;;3.57;1.60;;;;;;;;;;4983941;28;20207;-61
2022/03/27 12:53:12;;;;;;;3.60;1.77;;;;;;;;;;4984105;28;20189;-59
2022/03/27 12:55:46;;;;;;;5.40;1.70;;;;;;;;;;4966889;28;21013;-62
2022/03/27 12:58:16;;;;;;;3.70;1.60;;;;;;;;;;4982873;28;20213;-60
2022/03/27 13:00:44;;;;;;;3.50;1.53;;;;;;;;;;4982001;28;20202;-61
2022/03/27 13:03:18;;;;;;;5.37;1.67;;;;;;;;;;4964160;28;20204;-60
2022/03/27 13:05:45;;;;;;;5.13;1.63;;;;;;;;;;4981957;28;20280;-60
2022/03/27 13:08:12;;;;;;;6.30;1.70;;;;;;;;;;4985370;28;20652;-62
2022/03/27 13:10:39;;;;;;;4.63;1.40;;;;;;;;;;4983714;28;20314;-60
2022/03/27 13:13:08;;;;;;;5.30;1.67;;;;;;;;;;4983962;28;20189;-59
2022/03/27 13:15:47;;;;;;;4.03;1.60;;;;;;;;;;4984715;28;20191;-55
2022/03/27 13:18:17;;;;;;;4.00;1.70;;;;;;;;;;4984332;28;20192;-53
2022/03/27 13:20:44;;;;;;;3.40;1.37;;;;;;;;;;4982382;28;21068;-56
2022/03/27 13:23:11;;;;;;;4.40;1.80;;;;;;;;;;4987377;28;20199;-58
2022/03/27 13:25:37;;;;;;;4.57;1.90;;;;;;;;;;4991087;28;20271;-55
2022/03/27 13:28:04;;;;;;;7.10;1.97;;;;;;;;;;4991059;28;20188;-55
2022/03/27 13:30:31;;;;;;;4.57;1.93;;;;;;;;;;4990923;28;20219;-52
2022/03/27 13:32:58;;;;;;;3.63;2.00;;;;;;;;;;4990911;28;20280;-54
2022/03/27 13:35:25;;;;;;;2.90;1.47;;;;;;;;;;4990996;28;20549;-53
2022/03/27 13:37:53;;;;;;;3.47;1.90;;;;;;;;;;4991222;28;20288;-54
2022/03/27 13:40:21;;;;;;;4.37;1.60;;;;;;;;;;4976121;28;21017;-55
2022/03/27 13:43:00;;;;;;;2.73;1.30;;;;;;;;;;4971843;28;20542;-56
2022/03/27 13:45:54;;;;;;;2.33;1.30;;;;;;;;;;4971633;28;20510;-54
2022/03/27 13:48:23;;;;;;;6.30;1.60;;;;;;;;;;4971481;28;20200;-55
2022/03/27 13:51:07;;;;;;;3.03;1.50;;;;;;;;;;4986020;28;20543;-56
2022/03/27 13:53:34;;;;;;;6.47;2.17;;;;;;;;;;4991080;28;20185;-55
2022/03/27 13:56:03;;;;;;;5.13;1.80;;;;;;;;;;4990384;28;20211;-59
2022/03/27 13:58:36;;;;;;;3.80;1.83;;;;;;;;;;4990525;28;20212;-59
2022/03/27 14:01:06;;;;;;;3.77;1.73;;;;;;;;;;4957008;28;20231;-59
2022/03/27 14:03:37;;;;;;;9.37;2.10;;;;;;;;;;4973606;28;20200;-60
2022/03/27 14:06:05;;;;;;;3.23;1.73;;;;;;;;;;4990731;28;20193;-60
2022/03/27 14:08:32;;;;;;;6.67;1.90;;;;;;;;;;4984917;28;20205;-58
2022/03/27 14:10:59;;;;;;;5.67;1.60;;;;;;;;;;4971225;28;20193;-55
2022/03/27 14:13:26;;;;;;;5.37;1.93;;;;;;;;;;4970679;28;20288;-60
2022/03/27 14:15:52;;;;;;;4.50;2.00;;;;;;;;;;4970864;28;20178;-59
2022/03/27 14:18:19;;;;;;;5.90;2.07;;;;;;;;;;4971106;28;20217;-61
2022/03/27 14:20:47;;;;;;;3.17;1.43;;;;;;;;;;4970819;28;20174;-59
2022/03/27 14:23:14;;;;;;;5.00;1.90;;;;;;;;;;4970899;28;20202;-60
2022/03/27 14:25:41;;;;;;;4.87;1.73;;;;;;;;;;4970812;28;20206;-61
2022/03/27 14:28:08;;;;;;;6.90;1.73;;;;;;;;;;4989611;28;20628;-59
2022/03/27 14:30:36;;;;;;;4.10;1.90;;;;;;;;;;4973040;28;20193;-60
2022/03/27 14:33:03;;;;;;;5.83;1.80;;;;;;;;;;4990136;28;20203;-60
2022/03/27 14:35:29;;;;;;;6.67;2.20;;;;;;;;;;4989962;28;20205;-60
2022/03/27 14:37:56;;;;;;;5.27;2.10;;;;;;;;;;4974506;28;20193;-60
2022/03/27 14:40:24;;;;;;;5.50;1.97;;;;;;;;;;4980528;28;20224;-62
2022/03/27 14:42:51;;;;;;;5.40;2.00;;;;;;;;;;4982590;28;20219;-60
2022/03/27 14:45:18;;;;;;;6.80;2.80;;;;;;;;;;4983142;28;20303;-62
2022/03/27 14:47:45;;;;;;;4.33;1.93;;;;;;;;;;4981186;28;20185;-61
2022/03/27 14:50:30;;;;;;;7.20;2.00;;;;;;;;;;4982033;28;20177;-61
2022/03/27 14:52:58;;;;;;;3.53;1.70;;;;;;;;;;4965163;28;20200;-61
2022/03/27 14:58:14;;;;;;;6.07;1.93;;;;;;;;;;4989851;28;20197;-60
2022/03/27 15:00:59;;;;;;;6.30;2.03;;;;;;;;;;4989347;28;20560;-60
2022/03/27 15:03:26;;;;;;;4.20;2.00;;;;;;;;;;4989761;28;20276;-60
2022/03/27 15:05:53;;;;;;;4.77;1.90;;;;;;;;;;4989417;28;20200;-59
2022/03/27 15:08:19;;;;;;;5.70;2.40;;;;;;;;;;4989257;28;20196;-60
2022/03/27 15:10:46;;;;;;;4.87;2.03;;;;;;;;;;4988666;28;20212;-60
2022/03/27 15:13:13;;;;;;;7.37;2.00;;;;;;;;;;4989428;28;20624;-61
2022/03/27 15:15:40;;;;;;;8.47;2.37;;;;;;;;;;4988623;28;20212;-61
2022/03/27 15:18:07;;;;;;;7.27;2.47;;;;;;;;;;4955886;28;20559;-61
2022/03/27 15:20:35;;;;;;;4.20;2.03;;;;;;;;;;4987136;28;20213;-60
2022/03/27 15:23:01;;;;;;;4.00;1.87;;;;;;;;;;4987298;28;20177;-60
2022/03/27 15:25:28;;;;;;;7.27;2.40;;;;;;;;;;4988140;28;20191;-60
2022/03/27 15:27:57;;;;;;;7.27;1.77;;;;;;;;;;4985126;28;20189;-60
2022/03/27 15:30:24;;;;;;;4.90;1.97;;;;;;;;;;4989254;28;20548;-60